sensor_id;sensor_type;location;lat;lon;timestamp;pressure;altitude;pressure_sealevel;temperature;humidity
58785;BME280;44557;51.862;19.378;2023-11-22T00:01:58;99704.47;;;-0.76;87.27
58785;BME280;44557;51.862;19.378;2023-11-22T00:03:59;99714.52;;;-0.67;86.88
58785;BME280;44557;51.862;19.378;2023-11-22T00:06:33;99722.16;;;-0.86;86.99
58785;BME280;44557;51.862;19.378;2023-11-22T00:08:35;99726.50;;;-0.94;87.05
58785;BME280;44557;51.862;19.378;2023-11-22T00:10:35;99727.63;;;-0.74;86.65
58785;BME280;44557;51.862;19.378;2023-11-22T00:12:37;99735.26;;;-0.95;87.06
58785;BME280;44557;51.862;19.378;2023-11-22T00:14:40;99737.79;;;-0.97;87.01
58785;BME280;44557;51.862;19.378;2023-11-22T00:16:41;99744.55;;;-0.85;87.01
58785;BME280;44557;51.862;19.378;2023-11-22T00:18:45;99747.20;;;-0.84;86.15
58785;BME280;44557;51.862;19.378;2023-11-22T00:20:48;99753.15;;;-0.75;86.11
58785;BME280;44557;51.862;19.378;2023-11-22T00:22:50;99754.34;;;-0.62;85.61
58785;BME280;44557;51.862;19.378;2023-11-22T00:25:00;99760.82;;;-0.89;86.76
58785;BME280;44557;51.862;19.378;2023-11-22T00:27:21;99763.59;;;-0.84;87.04
58785;BME280;44557;51.862;19.378;2023-11-22T00:29:22;99770.96;;;-0.83;87.20
58785;BME280;44557;51.862;19.378;2023-11-22T00:31:24;99769.95;;;-0.81;87.30
58785;BME280;44557;51.862;19.378;2023-11-22T00:33:26;99769.14;;;-0.69;86.88
58785;BME280;44557;51.862;19.378;2023-11-22T00:35:27;99769.52;;;-0.69;86.43
58785;BME280;44557;51.862;19.378;2023-11-22T00:37:28;99768.09;;;-0.93;87.69
58785;BME280;44557;51.862;19.378;2023-11-22T00:39:30;99768.80;;;-0.91;87.32
58785;BME280;44557;51.862;19.378;2023-11-22T00:41:31;99768.82;;;-0.78;87.13
58785;BME280;44557;51.862;19.378;2023-11-22T00:43:32;99771.97;;;-0.77;87.39
58785;BME280;44557;51.862;19.378;2023-11-22T00:45:33;99778.61;;;-0.68;86.49
58785;BME280;44557;51.862;19.378;2023-11-22T00:47:35;99777.81;;;-0.75;85.81
58785;BME280;44557;51.862;19.378;2023-11-22T00:49:37;99778.36;;;-0.74;86.33
58785;BME280;44557;51.862;19.378;2023-11-22T00:51:39;99780.86;;;-0.73;86.61
58785;BME280;44557;51.862;19.378;2023-11-22T00:53:40;99782.52;;;-0.67;87.02
58785;BME280;44557;51.862;19.378;2023-11-22T00:55:41;99785.17;;;-0.75;87.10
58785;BME280;44557;51.862;19.378;2023-11-22T00:57:43;99789.73;;;-0.82;87.35
58785;BME280;44557;51.862;19.378;2023-11-22T00:59:44;99791.74;;;-0.82;87.27
58785;BME280;44557;51.862;19.378;2023-11-22T01:01:46;99790.14;;;-0.54;86.54
58785;BME280;44557;51.862;19.378;2023-11-22T01:03:47;99788.55;;;-0.62;86.89
58785;BME280;44557;51.862;19.378;2023-11-22T01:05:48;99789.70;;;-0.69;85.35
58785;BME280;44557;51.862;19.378;2023-11-22T01:07:49;99792.69;;;-0.86;85.09
58785;BME280;44557;51.862;19.378;2023-11-22T01:09:50;99787.44;;;-0.76;84.97
58785;BME280;44557;51.862;19.378;2023-11-22T01:11:51;99789.92;;;-0.77;85.35
58785;BME280;44557;51.862;19.378;2023-11-22T01:13:52;99795.80;;;-0.80;85.06
58785;BME280;44557;51.862;19.378;2023-11-22T01:15:53;99792.31;;;-0.93;85.78
58785;BME280;44557;51.862;19.378;2023-11-22T01:17:55;99792.27;;;-0.90;85.00
58785;BME280;44557;51.862;19.378;2023-11-22T01:19:56;99789.69;;;-0.81;85.16
58785;BME280;44557;51.862;19.378;2023-11-22T01:21:59;99785.58;;;-0.97;85.23
58785;BME280;44557;51.862;19.378;2023-11-22T01:24:00;99783.27;;;-0.97;85.80
58785;BME280;44557;51.862;19.378;2023-11-22T01:26:02;99785.35;;;-0.93;86.21
58785;BME280;44557;51.862;19.378;2023-11-22T01:28:04;99783.23;;;-0.93;86.80
58785;BME280;44557;51.862;19.378;2023-11-22T01:30:06;99786.61;;;-0.68;86.47
58785;BME280;44557;51.862;19.378;2023-11-22T01:32:08;99786.61;;;-0.68;86.17
58785;BME280;44557;51.862;19.378;2023-11-22T01:34:10;99786.17;;;-0.72;86.28
58785;BME280;44557;51.862;19.378;2023-11-22T01:36:11;99784.52;;;-0.86;87.43
58785;BME280;44557;51.862;19.378;2023-11-22T01:38:13;99790.30;;;-0.76;87.01
58785;BME280;44557;51.862;19.378;2023-11-22T01:40:14;99797.27;;;-0.77;87.69
58785;BME280;44557;51.862;19.378;2023-11-22T01:42:15;99805.35;;;-0.53;87.32
58785;BME280;44557;51.862;19.378;2023-11-22T01:44:17;99803.70;;;-0.48;87.03
58785;BME280;44557;51.862;19.378;2023-11-22T01:46:23;99808.21;;;-0.67;87.66
58785;BME280;44557;51.862;19.378;2023-11-22T01:48:26;99813.98;;;-0.60;87.94
58785;BME280;44557;51.862;19.378;2023-11-22T01:50:27;99809.53;;;-0.50;87.45
58785;BME280;44557;51.862;19.378;2023-11-22T01:52:29;99812.71;;;-0.53;87.23
58785;BME280;44557;51.862;19.378;2023-11-22T01:54:30;99814.39;;;-0.64;86.82
58785;BME280;44557;51.862;19.378;2023-11-22T01:56:32;99818.73;;;-0.60;86.00
58785;BME280;44557;51.862;19.378;2023-11-22T01:58:34;99818.27;;;-0.66;85.65
58785;BME280;44557;51.862;19.378;2023-11-22T02:00:41;99820.95;;;-0.79;86.27
58785;BME280;44557;51.862;19.378;2023-11-22T02:02:42;99822.18;;;-0.90;86.54
58785;BME280;44557;51.862;19.378;2023-11-22T02:04:44;99827.80;;;-0.73;85.81
58785;BME280;44557;51.862;19.378;2023-11-22T02:06:45;99826.08;;;-0.63;85.53
58785;BME280;44557;51.862;19.378;2023-11-22T02:08:46;99828.76;;;-0.69;85.41
58785;BME280;44557;51.862;19.378;2023-11-22T02:10:57;99829.15;;;-0.74;85.11
58785;BME280;44557;51.862;19.378;2023-11-22T02:12:58;99827.31;;;-0.84;85.48
58785;BME280;44557;51.862;19.378;2023-11-22T02:14:59;99828.11;;;-0.85;84.37
58785;BME280;44557;51.862;19.378;2023-11-22T02:17:01;99833.41;;;-0.85;84.91
58785;BME280;44557;51.862;19.378;2023-11-22T02:19:03;99840.02;;;-0.84;84.77
58785;BME280;44557;51.862;19.378;2023-11-22T02:21:05;99841.24;;;-0.86;84.44
58785;BME280;44557;51.862;19.378;2023-11-22T02:23:08;99844.70;;;-0.79;84.44
58785;BME280;44557;51.862;19.378;2023-11-22T02:25:11;99846.27;;;-0.60;83.07
58785;BME280;44557;51.862;19.378;2023-11-22T02:27:13;99846.85;;;-0.66;84.24
58785;BME280;44557;51.862;19.378;2023-11-22T02:29:14;99848.34;;;-0.78;83.86
58785;BME280;44557;51.862;19.378;2023-11-22T02:31:15;99855.23;;;-0.73;83.77
58785;BME280;44557;51.862;19.378;2023-11-22T02:33:17;99855.80;;;-0.60;83.76
58785;BME280;44557;51.862;19.378;2023-11-22T02:35:18;99857.27;;;-0.67;83.80
58785;BME280;44557;51.862;19.378;2023-11-22T02:37:39;99852.85;;;-0.74;83.78
58785;BME280;44557;51.862;19.378;2023-11-22T02:42:06;99862.50;;;-0.79;84.41
58785;BME280;44557;51.862;19.378;2023-11-22T02:44:06;99868.73;;;-0.67;84.04
58785;BME280;44557;51.862;19.378;2023-11-22T02:46:10;99872.13;;;-0.62;83.95
58785;BME280;44557;51.862;19.378;2023-11-22T02:48:11;99870.73;;;-0.52;83.86
58785;BME280;44557;51.862;19.378;2023-11-22T02:50:14;99870.47;;;-0.50;83.70
58785;BME280;44557;51.862;19.378;2023-11-22T02:52:15;99876.86;;;-0.75;84.91
58785;BME280;44557;51.862;19.378;2023-11-22T02:54:16;99885.59;;;-0.64;84.47
58785;BME280;44557;51.862;19.378;2023-11-22T02:56:18;99889.35;;;-0.60;84.09
58785;BME280;44557;51.862;19.378;2023-11-22T02:58:20;99894.20;;;-0.45;83.36
58785;BME280;44557;51.862;19.378;2023-11-22T03:00:21;99899.40;;;-0.37;82.08
58785;BME280;44557;51.862;19.378;2023-11-22T03:02:22;99897.89;;;-0.36;81.07
58785;BME280;44557;51.862;19.378;2023-11-22T03:04:23;99898.85;;;-0.72;83.10
58785;BME280;44557;51.862;19.378;2023-11-22T03:06:24;99902.82;;;-0.75;83.10
58785;BME280;44557;51.862;19.378;2023-11-22T03:08:26;99900.17;;;-0.75;82.81
58785;BME280;44557;51.862;19.378;2023-11-22T03:10:28;99909.52;;;-0.77;82.71
58785;BME280;44557;51.862;19.378;2023-11-22T03:12:32;99911.38;;;-0.67;83.01
58785;BME280;44557;51.862;19.378;2023-11-22T03:14:33;99914.54;;;-0.92;84.30
58785;BME280;44557;51.862;19.378;2023-11-22T03:16:38;99914.60;;;-0.85;84.51
58785;BME280;44557;51.862;19.378;2023-11-22T03:18:41;99918.75;;;-0.65;83.56
58785;BME280;44557;51.862;19.378;2023-11-22T03:20:42;99920.08;;;-0.77;82.67
58785;BME280;44557;51.862;19.378;2023-11-22T03:22:44;99922.87;;;-0.84;83.46
58785;BME280;44557;51.862;19.378;2023-11-22T03:24:45;99926.23;;;-0.54;82.39
58785;BME280;44557;51.862;19.378;2023-11-22T03:26:49;99928.86;;;-0.49;82.29
58785;BME280;44557;51.862;19.378;2023-11-22T03:28:50;99930.52;;;-0.83;82.94
58785;BME280;44557;51.862;19.378;2023-11-22T03:30:52;99932.48;;;-0.79;82.36
58785;BME280;44557;51.862;19.378;2023-11-22T03:32:53;99931.20;;;-0.97;82.18
58785;BME280;44557;51.862;19.378;2023-11-22T03:34:56;99927.83;;;-1.00;82.73
58785;BME280;44557;51.862;19.378;2023-11-22T03:36:58;99934.45;;;-0.84;82.48
58785;BME280;44557;51.862;19.378;2023-11-22T03:38:59;99937.12;;;-0.83;82.29
58785;BME280;44557;51.862;19.378;2023-11-22T03:41:01;99939.45;;;-0.81;81.68
58785;BME280;44557;51.862;19.378;2023-11-22T03:43:04;99941.92;;;-0.77;81.10
58785;BME280;44557;51.862;19.378;2023-11-22T03:45:06;99945.88;;;-0.89;82.37
58785;BME280;44557;51.862;19.378;2023-11-22T03:47:07;99947.73;;;-0.75;82.46
58785;BME280;44557;51.862;19.378;2023-11-22T03:49:10;99953.04;;;-0.73;81.95
58785;BME280;44557;51.862;19.378;2023-11-22T03:51:13;99964.35;;;-0.78;81.85
58785;BME280;44557;51.862;19.378;2023-11-22T03:53:14;99967.51;;;-0.83;82.62
58785;BME280;44557;51.862;19.378;2023-11-22T03:55:16;99966.23;;;-0.80;82.63
58785;BME280;44557;51.862;19.378;2023-11-22T03:57:17;99970.85;;;-0.84;82.52
58785;BME280;44557;51.862;19.378;2023-11-22T03:59:18;99978.04;;;-0.78;81.96
58785;BME280;44557;51.862;19.378;2023-11-22T04:01:19;99985.41;;;-0.82;81.28
58785;BME280;44557;51.862;19.378;2023-11-22T04:03:21;99991.98;;;-0.91;81.33
58785;BME280;44557;51.862;19.378;2023-11-22T04:05:26;99994.45;;;-1.05;81.80
58785;BME280;44557;51.862;19.378;2023-11-22T04:07:30;99998.58;;;-0.97;81.44
58785;BME280;44557;51.862;19.378;2023-11-22T04:09:31;100004.08;;;-0.98;81.73
58785;BME280;44557;51.862;19.378;2023-11-22T04:11:34;100004.17;;;-1.06;82.17
58785;BME280;44557;51.862;19.378;2023-11-22T04:13:39;100006.11;;;-0.95;81.97
58785;BME280;44557;51.862;19.378;2023-11-22T04:15:40;100010.42;;;-0.97;81.63
58785;BME280;44557;51.862;19.378;2023-11-22T04:17:41;100009.59;;;-1.10;82.10
58785;BME280;44557;51.862;19.378;2023-11-22T04:19:43;100009.42;;;-1.20;82.36
58785;BME280;44557;51.862;19.378;2023-11-22T04:21:44;100016.70;;;-1.32;81.80
58785;BME280;44557;51.862;19.378;2023-11-22T04:23:45;100016.89;;;-1.21;81.73
58785;BME280;44557;51.862;19.378;2023-11-22T04:25:50;100025.11;;;-1.18;80.38
58785;BME280;44557;51.862;19.378;2023-11-22T04:28:11;100030.80;;;-1.18;79.99
58785;BME280;44557;51.862;19.378;2023-11-22T04:30:34;100036.48;;;-1.32;79.84
58785;BME280;44557;51.862;19.378;2023-11-22T04:32:55;100038.97;;;-1.41;80.13
58785;BME280;44557;51.862;19.378;2023-11-22T04:35:52;100037.95;;;-1.37;79.73
58785;BME280;44557;51.862;19.378;2023-11-22T04:37:53;100038.20;;;-1.19;79.28
58785;BME280;44557;51.862;19.378;2023-11-22T04:39:59;100040.98;;;-1.21;78.78
58785;BME280;44557;51.862;19.378;2023-11-22T04:42:12;100043.23;;;-1.19;78.06
58785;BME280;44557;51.862;19.378;2023-11-22T04:44:33;100043.41;;;-1.44;78.78
58785;BME280;44557;51.862;19.378;2023-11-22T04:46:45;100044.08;;;-1.35;78.59
58785;BME280;44557;51.862;19.378;2023-11-22T04:49:15;100040.36;;;-1.49;79.70
58785;BME280;44557;51.862;19.378;2023-11-22T04:51:17;100039.88;;;-1.82;80.72
58785;BME280;44557;51.862;19.378;2023-11-22T04:53:19;100037.63;;;-1.81;81.38
58785;BME280;44557;51.862;19.378;2023-11-22T04:55:21;100034.27;;;-1.53;80.38
58785;BME280;44557;51.862;19.378;2023-11-22T04:57:26;100040.95;;;-1.91;81.25
58785;BME280;44557;51.862;19.378;2023-11-22T04:59:28;100048.24;;;-1.72;80.76
58785;BME280;44557;51.862;19.378;2023-11-22T05:01:32;100049.80;;;-1.79;80.49
58785;BME280;44557;51.862;19.378;2023-11-22T05:03:34;100055.40;;;-1.85;79.94
58785;BME280;44557;51.862;19.378;2023-11-22T05:05:36;100057.61;;;-1.92;80.09
58785;BME280;44557;51.862;19.378;2023-11-22T05:07:37;100060.18;;;-1.80;79.88
58785;BME280;44557;51.862;19.378;2023-11-22T05:09:39;100070.15;;;-1.99;80.34
58785;BME280;44557;51.862;19.378;2023-11-22T05:11:40;100080.60;;;-1.82;79.21
58785;BME280;44557;51.862;19.378;2023-11-22T05:13:45;100082.91;;;-1.95;79.33
58785;BME280;44557;51.862;19.378;2023-11-22T05:15:46;100083.09;;;-1.90;79.33
58785;BME280;44557;51.862;19.378;2023-11-22T05:17:47;100081.44;;;-1.92;79.22
58785;BME280;44557;51.862;19.378;2023-11-22T05:19:49;100075.51;;;-1.80;78.00
58785;BME280;44557;51.862;19.378;2023-11-22T05:21:49;100080.94;;;-2.17;79.06
58785;BME280;44557;51.862;19.378;2023-11-22T05:23:50;100084.23;;;-2.26;79.51
58785;BME280;44557;51.862;19.378;2023-11-22T05:25:53;100092.88;;;-2.13;78.56
58785;BME280;44557;51.862;19.378;2023-11-22T05:27:54;100099.36;;;-2.13;77.78
58785;BME280;44557;51.862;19.378;2023-11-22T05:29:56;100104.84;;;-2.01;77.48
58785;BME280;44557;51.862;19.378;2023-11-22T05:31:57;100106.17;;;-2.22;77.40
58785;BME280;44557;51.862;19.378;2023-11-22T05:33:59;100107.65;;;-2.07;76.63
58785;BME280;44557;51.862;19.378;2023-11-22T05:36:00;100105.95;;;-1.95;76.27
58785;BME280;44557;51.862;19.378;2023-11-22T05:38:00;100109.67;;;-2.06;75.63
58785;BME280;44557;51.862;19.378;2023-11-22T05:40:03;100108.63;;;-2.17;75.75
58785;BME280;44557;51.862;19.378;2023-11-22T05:42:05;100110.12;;;-2.09;75.59
58785;BME280;44557;51.862;19.378;2023-11-22T05:44:07;100120.15;;;-2.18;75.57
58785;BME280;44557;51.862;19.378;2023-11-22T05:46:09;100122.79;;;-2.19;75.23
58785;BME280;44557;51.862;19.378;2023-11-22T05:48:10;100128.70;;;-2.20;74.90
58785;BME280;44557;51.862;19.378;2023-11-22T05:50:10;100125.85;;;-2.30;75.25
58785;BME280;44557;51.862;19.378;2023-11-22T05:52:12;100132.89;;;-2.38;75.89
58785;BME280;44557;51.862;19.378;2023-11-22T05:54:13;100134.91;;;-2.36;76.28
58785;BME280;44557;51.862;19.378;2023-11-22T05:56:18;100139.86;;;-2.27;76.06
58785;BME280;44557;51.862;19.378;2023-11-22T05:58:19;100142.54;;;-2.29;76.44
58785;BME280;44557;51.862;19.378;2023-11-22T06:00:22;100148.47;;;-2.32;76.66
58785;BME280;44557;51.862;19.378;2023-11-22T06:02:22;100143.00;;;-2.45;77.43
58785;BME280;44557;51.862;19.378;2023-11-22T06:04:24;100145.94;;;-2.44;77.27
58785;BME280;44557;51.862;19.378;2023-11-22T06:06:25;100142.98;;;-2.27;77.45
58785;BME280;44557;51.862;19.378;2023-11-22T06:08:26;100144.46;;;-2.45;77.95
58785;BME280;44557;51.862;19.378;2023-11-22T06:10:28;100139.73;;;-2.35;77.77
58785;BME280;44557;51.862;19.378;2023-11-22T06:12:29;100138.85;;;-2.45;78.34
58785;BME280;44557;51.862;19.378;2023-11-22T06:14:31;100145.70;;;-2.56;78.84
58785;BME280;44557;51.862;19.378;2023-11-22T06:16:36;100142.00;;;-2.41;78.52
58785;BME280;44557;51.862;19.378;2023-11-22T06:18:37;100151.66;;;-2.43;77.68
58785;BME280;44557;51.862;19.378;2023-11-22T06:20:41;100161.62;;;-2.42;77.99
58785;BME280;44557;51.862;19.378;2023-11-22T06:22:42;100169.11;;;-2.53;78.22
58785;BME280;44557;51.862;19.378;2023-11-22T06:24:44;100172.83;;;-2.45;78.20
58785;BME280;44557;51.862;19.378;2023-11-22T06:26:45;100175.40;;;-2.61;78.37
58785;BME280;44557;51.862;19.378;2023-11-22T06:28:51;100183.80;;;-2.68;79.17
58785;BME280;44557;51.862;19.378;2023-11-22T06:30:57;100185.27;;;-2.63;78.81
58785;BME280;44557;51.862;19.378;2023-11-22T06:32:59;100184.95;;;-2.34;78.02
58785;BME280;44557;51.862;19.378;2023-11-22T06:35:09;100193.67;;;-1.52;74.89
58785;BME280;44557;51.862;19.378;2023-11-22T06:37:12;100193.15;;;-0.96;72.58
58785;BME280;44557;51.862;19.378;2023-11-22T06:39:17;100197.16;;;-0.47;70.21
58785;BME280;44557;51.862;19.378;2023-11-22T06:41:18;100201.84;;;-0.13;68.31
58785;BME280;44557;51.862;19.378;2023-11-22T06:43:22;100202.77;;;0.44;66.18
58785;BME280;44557;51.862;19.378;2023-11-22T06:45:24;100207.20;;;0.85;64.37
58785;BME280;44557;51.862;19.378;2023-11-22T06:47:26;100210.67;;;1.38;62.29
58785;BME280;44557;51.862;19.378;2023-11-22T06:49:28;100211.70;;;1.65;60.87
58785;BME280;44557;51.862;19.378;2023-11-22T06:51:28;100215.23;;;1.87;60.01
58785;BME280;44557;51.862;19.378;2023-11-22T06:53:30;100217.36;;;2.30;58.48
58785;BME280;44557;51.862;19.378;2023-11-22T06:55:33;100223.22;;;2.52;57.53
58785;BME280;44557;51.862;19.378;2023-11-22T06:57:35;100228.23;;;2.90;56.33
58785;BME280;44557;51.862;19.378;2023-11-22T06:59:36;100228.23;;;3.58;54.41
58785;BME280;44557;51.862;19.378;2023-11-22T07:01:38;100235.58;;;3.35;54.68
58785;BME280;44557;51.862;19.378;2023-11-22T07:03:40;100240.11;;;3.59;53.85
58785;BME280;44557;51.862;19.378;2023-11-22T07:05:41;100236.75;;;4.30;51.50
58785;BME280;44557;51.862;19.378;2023-11-22T07:07:42;100234.62;;;4.08;51.67
58785;BME280;44557;51.862;19.378;2023-11-22T07:09:44;100231.86;;;4.56;50.69
58785;BME280;44557;51.862;19.378;2023-11-22T07:11:45;100233.02;;;5.06;49.19
58785;BME280;44557;51.862;19.378;2023-11-22T07:13:46;100231.62;;;5.34;48.23
58785;BME280;44557;51.862;19.378;2023-11-22T07:15:48;100230.59;;;5.39;48.28
58785;BME280;44557;51.862;19.378;2023-11-22T07:17:49;100224.27;;;5.83;47.16
58785;BME280;44557;51.862;19.378;2023-11-22T07:19:51;100212.57;;;6.26;45.72
58785;BME280;44557;51.862;19.378;2023-11-22T07:21:52;100221.50;;;6.63;44.58
58785;BME280;44557;51.862;19.378;2023-11-22T07:23:54;100222.15;;;6.61;43.95
58785;BME280;44557;51.862;19.378;2023-11-22T07:25:56;100220.86;;;6.53;44.59
58785;BME280;44557;51.862;19.378;2023-11-22T07:27:57;100227.63;;;7.12;43.64
58785;BME280;44557;51.862;19.378;2023-11-22T07:30:00;100228.12;;;7.27;42.84
58785;BME280;44557;51.862;19.378;2023-11-22T07:32:01;100230.59;;;7.21;42.85
58785;BME280;44557;51.862;19.378;2023-11-22T07:34:03;100221.53;;;6.99;43.20
58785;BME280;44557;51.862;19.378;2023-11-22T07:36:05;100214.13;;;7.02;42.45
58785;BME280;44557;51.862;19.378;2023-11-22T07:38:06;100217.27;;;5.88;44.48
58785;BME280;44557;51.862;19.378;2023-11-22T07:40:12;100216.66;;;6.16;44.66
58785;BME280;44557;51.862;19.378;2023-11-22T07:42:14;100222.67;;;6.13;44.17
58785;BME280;44557;51.862;19.378;2023-11-22T07:44:16;100232.91;;;6.39;44.11
58785;BME280;44557;51.862;19.378;2023-11-22T07:46:17;100235.35;;;6.18;43.98
58785;BME280;44557;51.862;19.378;2023-11-22T07:48:19;100238.63;;;5.68;44.44
58785;BME280;44557;51.862;19.378;2023-11-22T07:50:20;100243.34;;;5.65;44.68
58785;BME280;44557;51.862;19.378;2023-11-22T07:52:23;100242.75;;;6.19;43.95
58785;BME280;44557;51.862;19.378;2023-11-22T07:54:30;100241.95;;;5.75;44.88
58785;BME280;44557;51.862;19.378;2023-11-22T07:56:31;100246.64;;;5.81;44.80
58785;BME280;44557;51.862;19.378;2023-11-22T07:58:33;100255.27;;;6.60;43.36
58785;BME280;44557;51.862;19.378;2023-11-22T08:00:35;100259.36;;;6.29;43.36
58785;BME280;44557;51.862;19.378;2023-11-22T08:02:38;100262.50;;;6.61;43.48
58785;BME280;44557;51.862;19.378;2023-11-22T08:04:44;100261.95;;;6.65;42.65
58785;BME280;44557;51.862;19.378;2023-11-22T08:06:46;100262.70;;;6.65;42.65
58785;BME280;44557;51.862;19.378;2023-11-22T08:08:48;100264.24;;;6.64;43.34
58785;BME280;44557;51.862;19.378;2023-11-22T08:10:49;100263.35;;;6.59;43.48
58785;BME280;44557;51.862;19.378;2023-11-22T08:12:54;100272.20;;;6.74;41.96
58785;BME280;44557;51.862;19.378;2023-11-22T08:14:55;100274.88;;;7.09;41.43
58785;BME280;44557;51.862;19.378;2023-11-22T08:16:58;100274.93;;;6.99;41.38
58785;BME280;44557;51.862;19.378;2023-11-22T08:18:58;100274.14;;;6.48;42.62
58785;BME280;44557;51.862;19.378;2023-11-22T08:20:59;100273.86;;;6.76;42.02
58785;BME280;44557;51.862;19.378;2023-11-22T08:23:00;100274.20;;;6.82;42.17
58785;BME280;44557;51.862;19.378;2023-11-22T08:25:02;100269.54;;;6.45;42.45
58785;BME280;44557;51.862;19.378;2023-11-22T08:27:04;100268.70;;;6.56;42.75
58785;BME280;44557;51.862;19.378;2023-11-22T08:29:06;100273.67;;;6.57;42.51
58785;BME280;44557;51.862;19.378;2023-11-22T08:31:12;100283.67;;;6.68;41.94
58785;BME280;44557;51.862;19.378;2023-11-22T08:33:14;100289.48;;;6.94;41.47
58785;BME280;44557;51.862;19.378;2023-11-22T08:35:15;100296.62;;;6.97;41.18
58785;BME280;44557;51.862;19.378;2023-11-22T08:37:16;100306.57;;;6.78;41.46
58785;BME280;44557;51.862;19.378;2023-11-22T08:39:18;100318.53;;;6.49;42.22
58785;BME280;44557;51.862;19.378;2023-11-22T08:41:19;100325.98;;;6.32;42.32
58785;BME280;44557;51.862;19.378;2023-11-22T08:43:20;100321.36;;;6.56;42.39
58785;BME280;44557;51.862;19.378;2023-11-22T08:45:23;100324.00;;;6.44;42.41
58785;BME280;44557;51.862;19.378;2023-11-22T08:47:29;100326.90;;;6.64;42.19
58785;BME280;44557;51.862;19.378;2023-11-22T08:49:33;100333.70;;;6.16;42.91
58785;BME280;44557;51.862;19.378;2023-11-22T08:51:34;100332.52;;;6.07;42.58
58785;BME280;44557;51.862;19.378;2023-11-22T08:53:35;100335.79;;;5.74;43.26
58785;BME280;44557;51.862;19.378;2023-11-22T08:55:37;100342.11;;;5.81;43.19
58785;BME280;44557;51.862;19.378;2023-11-22T08:57:38;100343.69;;;5.75;43.78
58785;BME280;44557;51.862;19.378;2023-11-22T08:59:41;100353.52;;;5.46;44.77
58785;BME280;44557;51.862;19.378;2023-11-22T09:01:42;100351.13;;;5.80;44.08
58785;BME280;44557;51.862;19.378;2023-11-22T09:03:46;100347.20;;;5.76;44.07
58785;BME280;44557;51.862;19.378;2023-11-22T09:05:48;100343.23;;;6.20;43.84
58785;BME280;44557;51.862;19.378;2023-11-22T09:07:50;100347.13;;;6.19;43.13
58785;BME280;44557;51.862;19.378;2023-11-22T09:09:51;100351.45;;;5.67;43.64
58785;BME280;44557;51.862;19.378;2023-11-22T09:11:53;100354.50;;;5.45;44.02
58785;BME280;44557;51.862;19.378;2023-11-22T09:13:55;100349.36;;;5.34;45.04
58785;BME280;44557;51.862;19.378;2023-11-22T09:15:58;100333.61;;;5.53;44.83
58785;BME280;44557;51.862;19.378;2023-11-22T09:17:59;100327.57;;;5.70;44.77
58785;BME280;44557;51.862;19.378;2023-11-22T09:20:00;100329.75;;;5.34;44.78
58785;BME280;44557;51.862;19.378;2023-11-22T09:22:03;100326.50;;;5.53;44.91
58785;BME280;44557;51.862;19.378;2023-11-22T09:24:06;100317.42;;;5.27;45.38
58785;BME280;44557;51.862;19.378;2023-11-22T09:26:08;100318.61;;;5.33;45.50
58785;BME280;44557;51.862;19.378;2023-11-22T09:28:09;100315.12;;;5.70;43.94
58785;BME280;44557;51.862;19.378;2023-11-22T09:30:10;100311.67;;;5.65;44.14
58785;BME280;44557;51.862;19.378;2023-11-22T09:32:19;100310.98;;;5.58;44.74
58785;BME280;44557;51.862;19.378;2023-11-22T09:34:19;100305.44;;;5.94;44.21
58785;BME280;44557;51.862;19.378;2023-11-22T09:36:20;100301.02;;;5.78;44.53
58785;BME280;44557;51.862;19.378;2023-11-22T09:38:22;100299.89;;;5.28;44.96
58785;BME280;44557;51.862;19.378;2023-11-22T09:40:23;100284.81;;;5.52;44.59
58785;BME280;44557;51.862;19.378;2023-11-22T09:42:25;100273.96;;;5.73;44.20
58785;BME280;44557;51.862;19.378;2023-11-22T09:44:28;100270.63;;;5.82;43.55
58785;BME280;44557;51.862;19.378;2023-11-22T09:46:29;100276.09;;;5.29;44.38
58785;BME280;44557;51.862;19.378;2023-11-22T09:48:31;100283.98;;;5.33;44.76
58785;BME280;44557;51.862;19.378;2023-11-22T09:50:40;100285.89;;;5.47;44.59
58785;BME280;44557;51.862;19.378;2023-11-22T09:52:51;100280.92;;;5.68;44.16
58785;BME280;44557;51.862;19.378;2023-11-22T09:54:54;100277.55;;;5.55;44.05
58785;BME280;44557;51.862;19.378;2023-11-22T09:56:57;100277.49;;;5.62;43.84
58785;BME280;44557;51.862;19.378;2023-11-22T09:59:01;100279.32;;;5.99;43.56
58785;BME280;44557;51.862;19.378;2023-11-22T10:01:04;100278.54;;;6.02;43.66
58785;BME280;44557;51.862;19.378;2023-11-22T10:03:06;100275.84;;;5.94;43.93
58785;BME280;44557;51.862;19.378;2023-11-22T10:05:07;100270.90;;;6.08;42.78
58785;BME280;44557;51.862;19.378;2023-11-22T10:07:09;100265.90;;;6.20;42.99
58785;BME280;44557;51.862;19.378;2023-11-22T10:09:11;100266.01;;;6.77;41.72
58785;BME280;44557;51.862;19.378;2023-11-22T10:11:15;100272.18;;;6.43;41.61
58785;BME280;44557;51.862;19.378;2023-11-22T10:13:22;100280.03;;;6.15;42.72
58785;BME280;44557;51.862;19.378;2023-11-22T10:15:23;100285.05;;;5.97;42.92
58785;BME280;44557;51.862;19.378;2023-11-22T10:17:29;100294.16;;;5.75;43.05
58785;BME280;44557;51.862;19.378;2023-11-22T10:19:30;100304.43;;;5.02;43.52
58785;BME280;44557;51.862;19.378;2023-11-22T10:21:30;100304.07;;;5.12;43.83
58785;BME280;44557;51.862;19.378;2023-11-22T10:23:32;100307.11;;;5.80;43.06
58785;BME280;44557;51.862;19.378;2023-11-22T10:25:34;100308.56;;;5.38;43.64
58785;BME280;44557;51.862;19.378;2023-11-22T10:27:35;100314.08;;;6.07;43.38
58785;BME280;44557;51.862;19.378;2023-11-22T10:29:38;100315.89;;;5.88;44.12
58785;BME280;44557;51.862;19.378;2023-11-22T10:31:40;100313.89;;;6.13;43.53
58785;BME280;44557;51.862;19.378;2023-11-22T10:33:42;100315.41;;;5.87;43.84
58785;BME280;44557;51.862;19.378;2023-11-22T10:35:44;100318.33;;;5.80;43.70
58785;BME280;44557;51.862;19.378;2023-11-22T10:37:46;100308.40;;;5.92;43.46
58785;BME280;44557;51.862;19.378;2023-11-22T10:39:51;100302.88;;;5.80;42.86
58785;BME280;44557;51.862;19.378;2023-11-22T10:41:52;100298.59;;;4.78;44.65
58785;BME280;44557;51.862;19.378;2023-11-22T10:43:55;100295.71;;;5.13;44.35